PWSweather.com
Personal Weather Stations
Station Observations
INORDPAS37
Bondues, BonduesFR 59910

BonduesBonduesFR 59910

Lat: 50.7, Lon: 3.09

Elevation: 102

Station Type: Netatmo

http://bondues.meteoamikuze.com

High Low Average
Temperature 49.5°F9.7°C 32.7°F0.4°C 39.9°F4.4°C
Dew Point 35.2°F1.8°C 22.3°F-5.4°C 27.7°F-2.4°C
Winds 3.1 mph 5.0 kmh Calm Calm 1.0 mph SW1.6 kmh SW
Wind Gusts 6.9 mph11.1 kmh 1.3 mph2.1 kmh 3.0 mph4.8 kmh
Humidity 72% 61% 67%
Pressure 30.35 in1027.8 mb 30.16 in1021.3 mb -
Precipitation 0.00 in0.0 mm - -
Hour Temp Dew Point Humidity Winds Wind Gusts Pressure Precip Precip Rate Daily Precip Total
12:05 AM 39.0°F3.9°C 27.7°F-2.4°C 69% 1.8 mph W2.9 kmh W 3.8 mph6.1 kmh 30.16 in1021.3 mb 0.00 in0.0 mm 0.00 in0.0 mm 0.00 in0.0 mm
12:25 AM 38.7°F3.7°C 27.3°F-2.6°C 69% 2.5 mph W4.0 kmh W 4.9 mph7.9 kmh 30.16 in1021.3 mb 0.00 in0.0 mm 0.00 in0.0 mm 0.00 in0.0 mm
12:45 AM 38.5°F3.6°C 27.1°F-2.7°C 69% 1.8 mph W2.9 kmh W 4.3 mph6.9 kmh 30.16 in1021.3 mb 0.00 in0.0 mm 0.00 in0.0 mm 0.00 in0.0 mm
01:06 AM 38.1°F3.4°C 27.1°F-2.7°C 70% 1.8 mph W2.9 kmh W 4.3 mph6.9 kmh 30.17 in1021.7 mb 0.00 in0.0 mm 0.00 in0.0 mm 0.00 in0.0 mm
01:26 AM 37.8°F3.2°C 26.8°F-2.9°C 70% 1.8 mph W2.9 kmh W 4.9 mph7.9 kmh 30.17 in1021.7 mb 0.00 in0.0 mm 0.00 in0.0 mm 0.00 in0.0 mm
01:42 AM 37.2°F2.9°C 26.2°F-3.2°C 70% 1.8 mph WSW2.9 kmh WSW 3.1 mph5.0 kmh 30.18 in1022.0 mb 0.00 in0.0 mm 0.00 in0.0 mm 0.00 in0.0 mm
02:01 AM 36.7°F2.6°C 25.9°F-3.4°C 70% 1.3 mph WSW2.1 kmh WSW 2.5 mph4.0 kmh 30.19 in1022.4 mb 0.00 in0.0 mm 0.00 in0.0 mm 0.00 in0.0 mm
02:22 AM 36.1°F2.3°C 25.3°F-3.7°C 70% 1.8 mph SW2.9 kmh SW 4.3 mph6.9 kmh 30.20 in1022.7 mb 0.00 in0.0 mm 0.00 in0.0 mm 0.00 in0.0 mm
02:42 AM 35.8°F2.1°C 25.0°F-3.9°C 70% 1.3 mph SW2.1 kmh SW 3.1 mph5.0 kmh 30.20 in1022.7 mb 0.00 in0.0 mm 0.00 in0.0 mm 0.00 in0.0 mm
03:02 AM 35.1°F1.7°C 24.3°F-4.3°C 70% 1.3 mph WSW2.1 kmh WSW 2.5 mph4.0 kmh 30.21 in1023.0 mb 0.00 in0.0 mm 0.00 in0.0 mm 0.00 in0.0 mm
03:22 AM 34.3°F1.3°C 23.5°F-4.7°C 70% 1.3 mph SW2.1 kmh SW 2.5 mph4.0 kmh 30.22 in1023.4 mb 0.00 in0.0 mm 0.00 in0.0 mm 0.00 in0.0 mm
03:43 AM 34.5°F1.4°C 23.7°F-4.6°C 70% 1.3 mph SW2.1 kmh SW 3.1 mph5.0 kmh 30.22 in1023.4 mb 0.00 in0.0 mm 0.00 in0.0 mm 0.00 in0.0 mm
04:03 AM 34.7°F1.5°C 23.9°F-4.5°C 70% 2.5 mph SW4.0 kmh SW 4.3 mph6.9 kmh 30.22 in1023.4 mb 0.00 in0.0 mm 0.00 in0.0 mm 0.00 in0.0 mm
04:23 AM 34.9°F1.6°C 24.1°F-4.4°C 70% 2.5 mph SW4.0 kmh SW 4.3 mph6.9 kmh 30.22 in1023.4 mb 0.00 in0.0 mm 0.00 in0.0 mm 0.00 in0.0 mm
04:44 AM 34.9°F1.6°C 24.4°F-4.2°C 71% 1.8 mph WSW2.9 kmh WSW 3.1 mph5.0 kmh 30.23 in1023.7 mb 0.00 in0.0 mm 0.00 in0.0 mm 0.00 in0.0 mm
05:07 AM 34.7°F1.5°C 24.3°F-4.3°C 71% 1.8 mph SW2.9 kmh SW 3.8 mph6.1 kmh 30.24 in1024.0 mb 0.00 in0.0 mm 0.00 in0.0 mm 0.00 in0.0 mm
05:27 AM 34.3°F1.3°C 23.9°F-4.5°C 71% 0.7 mph SW1.1 kmh SW 1.8 mph2.9 kmh 30.24 in1024.0 mb 0.00 in0.0 mm 0.00 in0.0 mm 0.00 in0.0 mm
05:48 AM 34.0°F1.1°C 23.5°F-4.7°C 71% 1.8 mph SW2.9 kmh SW 3.8 mph6.1 kmh 30.25 in1024.4 mb 0.00 in0.0 mm 0.00 in0.0 mm 0.00 in0.0 mm
06:08 AM 34.0°F1.1°C 23.5°F-4.7°C 71% 1.3 mph SW2.1 kmh SW 2.5 mph4.0 kmh 30.25 in1024.4 mb 0.00 in0.0 mm 0.00 in0.0 mm 0.00 in0.0 mm
06:28 AM 34.0°F1.1°C 23.5°F-4.7°C 71% 1.3 mph WSW2.1 kmh WSW 3.1 mph5.0 kmh 30.27 in1025.1 mb 0.00 in0.0 mm 0.00 in0.0 mm 0.00 in0.0 mm
06:48 AM 33.6°F0.9°C 23.2°F-4.9°C 71% 1.3 mph SW2.1 kmh SW 1.8 mph2.9 kmh 30.27 in1025.1 mb 0.00 in0.0 mm 0.00 in0.0 mm 0.00 in0.0 mm
07:09 AM 33.3°F0.7°C 22.8°F-5.1°C 71% 1.8 mph WSW2.9 kmh WSW 3.8 mph6.1 kmh 30.28 in1025.4 mb 0.00 in0.0 mm 0.00 in0.0 mm 0.00 in0.0 mm
07:35 AM 33.1°F0.6°C 22.6°F-5.2°C 71% 1.8 mph WSW2.9 kmh WSW 3.8 mph6.1 kmh 30.28 in1025.4 mb 0.00 in0.0 mm 0.00 in0.0 mm 0.00 in0.0 mm
07:55 AM 33.1°F0.6°C 22.6°F-5.2°C 71% 1.8 mph SW2.9 kmh SW 3.1 mph5.0 kmh 30.28 in1025.4 mb 0.00 in0.0 mm 0.00 in0.0 mm 0.00 in0.0 mm
08:15 AM 33.1°F0.6°C 22.6°F-5.2°C 71% 1.8 mph WSW2.9 kmh WSW 3.8 mph6.1 kmh 30.29 in1025.7 mb 0.00 in0.0 mm 0.00 in0.0 mm 0.00 in0.0 mm
08:35 AM 33.1°F0.6°C 22.6°F-5.2°C 71% 1.3 mph W2.1 kmh W 2.5 mph4.0 kmh 30.30 in1026.1 mb 0.00 in0.0 mm 0.00 in0.0 mm 0.00 in0.0 mm
08:55 AM 32.7°F0.4°C 22.3°F-5.4°C 71% 1.3 mph SW2.1 kmh SW 2.5 mph4.0 kmh 30.30 in1026.1 mb 0.00 in0.0 mm 0.00 in0.0 mm 0.00 in0.0 mm
09:15 AM 32.9°F0.5°C 22.5°F-5.3°C 71% 1.3 mph WSW2.1 kmh WSW 2.5 mph4.0 kmh 30.31 in1026.4 mb 0.00 in0.0 mm 0.00 in0.0 mm 0.00 in0.0 mm
09:35 AM 33.3°F0.7°C 22.8°F-5.1°C 71% 1.3 mph SW2.1 kmh SW 3.8 mph6.1 kmh 30.32 in1026.8 mb 0.00 in0.0 mm 0.00 in0.0 mm 0.00 in0.0 mm
09:41 AM 34.7°F1.5°C 24.3°F-4.3°C 71% 1.3 mph WSW2.1 kmh WSW 3.1 mph5.0 kmh 30.32 in1026.8 mb 0.00 in0.0 mm 0.00 in0.0 mm 0.00 in0.0 mm
10:01 AM 37.2°F2.9°C 27.0°F-2.8°C 72% 1.8 mph W2.9 kmh W 4.3 mph6.9 kmh 30.33 in1027.1 mb 0.00 in0.0 mm 0.00 in0.0 mm 0.00 in0.0 mm
10:21 AM 39.0°F3.9°C 28.8°F-1.8°C 72% 1.8 mph WSW2.9 kmh WSW 4.3 mph6.9 kmh 30.33 in1027.1 mb 0.00 in0.0 mm 0.00 in0.0 mm 0.00 in0.0 mm
10:42 AM 41.4°F5.2°C 31.1°F-0.5°C 72% 2.5 mph WSW4.0 kmh WSW 4.9 mph7.9 kmh 30.34 in1027.4 mb 0.00 in0.0 mm 0.00 in0.0 mm 0.00 in0.0 mm
11:01 AM 43.0°F6.1°C 32.2°F0.1°C 71% 1.8 mph WSW2.9 kmh WSW 4.3 mph6.9 kmh 30.34 in1027.4 mb 0.00 in0.0 mm 0.00 in0.0 mm 0.00 in0.0 mm
11:22 AM 44.8°F7.1°C 34.0°F1.1°C 71% 1.8 mph WSW2.9 kmh WSW 4.3 mph6.9 kmh 30.35 in1027.8 mb 0.00 in0.0 mm 0.00 in0.0 mm 0.00 in0.0 mm
11:41 AM 45.7°F7.6°C 34.9°F1.6°C 71% 2.5 mph W4.0 kmh W 5.6 mph9.0 kmh 30.35 in1027.8 mb 0.00 in0.0 mm 0.00 in0.0 mm 0.00 in0.0 mm
12:02 PM 46.2°F7.9°C 34.9°F1.6°C 70% 1.3 mph W2.1 kmh W 4.9 mph7.9 kmh 30.35 in1027.8 mb 0.00 in0.0 mm 0.00 in0.0 mm 0.00 in0.0 mm
12:22 PM 46.9°F8.3°C 35.2°F1.8°C 69% 1.8 mph WSW2.9 kmh WSW 4.3 mph6.9 kmh 30.35 in1027.8 mb 0.00 in0.0 mm 0.00 in0.0 mm 0.00 in0.0 mm
12:42 PM 47.3°F8.5°C 35.2°F1.8°C 68% 2.5 mph WSW4.0 kmh WSW 4.9 mph7.9 kmh 30.35 in1027.8 mb 0.00 in0.0 mm 0.00 in0.0 mm 0.00 in0.0 mm
01:03 PM 47.7°F8.7°C 34.9°F1.6°C 66% 2.5 mph W4.0 kmh W 4.9 mph7.9 kmh 30.35 in1027.8 mb 0.00 in0.0 mm 0.00 in0.0 mm 0.00 in0.0 mm
01:23 PM 47.7°F8.7°C 34.3°F1.3°C 65% 3.1 mph WSW5.0 kmh WSW 6.9 mph11.1 kmh 30.35 in1027.8 mb 0.00 in0.0 mm 0.00 in0.0 mm 0.00 in0.0 mm
01:43 PM 47.1°F8.4°C 33.4°F0.8°C 64% 3.1 mph W5.0 kmh W 6.9 mph11.1 kmh 30.35 in1027.8 mb 0.00 in0.0 mm 0.00 in0.0 mm 0.00 in0.0 mm
02:03 PM 46.8°F8.2°C 33.3°F0.7°C 64% 2.5 mph W4.0 kmh W 5.6 mph9.0 kmh 30.35 in1027.8 mb 0.00 in0.0 mm 0.00 in0.0 mm 0.00 in0.0 mm
02:24 PM 46.8°F8.2°C 33.6°F0.9°C 65% 1.3 mph W2.1 kmh W 3.1 mph5.0 kmh 30.34 in1027.4 mb 0.00 in0.0 mm 0.00 in0.0 mm 0.00 in0.0 mm
02:43 PM 46.4°F8.0°C 32.9°F0.5°C 64% 1.8 mph W2.9 kmh W 4.3 mph6.9 kmh 30.33 in1027.1 mb 0.00 in0.0 mm 0.00 in0.0 mm 0.00 in0.0 mm
03:04 PM 46.9°F8.3°C 32.9°F0.5°C 63% 3.1 mph W5.0 kmh W 5.6 mph9.0 kmh 30.33 in1027.1 mb 0.00 in0.0 mm 0.00 in0.0 mm 0.00 in0.0 mm
03:24 PM 47.8°F8.8°C 33.4°F0.8°C 62% 3.1 mph WSW5.0 kmh WSW 6.9 mph11.1 kmh 30.33 in1027.1 mb 0.00 in0.0 mm 0.00 in0.0 mm 0.00 in0.0 mm
03:44 PM 48.2°F9.0°C 33.8°F1.0°C 62% 0.7 mph SSE1.1 kmh SSE 1.8 mph2.9 kmh 30.33 in1027.1 mb 0.00 in0.0 mm 0.00 in0.0 mm 0.00 in0.0 mm
04:05 PM 49.5°F9.7°C 34.9°F1.6°C 62% 1.3 mph W2.1 kmh W 3.8 mph6.1 kmh 30.33 in1027.1 mb 0.00 in0.0 mm 0.00 in0.0 mm 0.00 in0.0 mm
04:25 PM 48.7°F9.3°C 34.0°F1.1°C 61% 1.3 mph W2.1 kmh W 2.5 mph4.0 kmh 30.32 in1026.8 mb 0.00 in0.0 mm 0.00 in0.0 mm 0.00 in0.0 mm
04:46 PM 47.7°F8.7°C 32.9°F0.5°C 61% 0.7 mph W1.1 kmh W 1.8 mph2.9 kmh 30.32 in1026.8 mb 0.00 in0.0 mm 0.00 in0.0 mm 0.00 in0.0 mm
05:05 PM 46.9°F8.3°C 32.2°F0.1°C 61% 0.7 mph NW1.1 kmh NW 1.3 mph2.1 kmh 30.32 in1026.8 mb 0.00 in0.0 mm 0.00 in0.0 mm 0.00 in0.0 mm
05:26 PM 46.0°F7.8°C 31.3°F-0.4°C 61% 0.7 mph NNW1.1 kmh NNW 1.3 mph2.1 kmh 30.31 in1026.4 mb 0.00 in0.0 mm 0.00 in0.0 mm 0.00 in0.0 mm
05:55 PM 45.5°F7.5°C 30.9°F-0.6°C 61% 0.7 mph NW1.1 kmh NW 1.3 mph2.1 kmh 30.31 in1026.4 mb 0.00 in0.0 mm 0.00 in0.0 mm 0.00 in0.0 mm
06:02 PM 44.2°F6.8°C 29.7°F-1.3°C 61% 0.7 mph W1.1 kmh W 1.3 mph2.1 kmh 30.31 in1026.4 mb 0.00 in0.0 mm 0.00 in0.0 mm 0.00 in0.0 mm
06:21 PM 43.2°F6.2°C 28.6°F-1.9°C 61% Calm Calm 1.8 mph2.9 kmh 30.32 in1026.8 mb 0.00 in0.0 mm 0.00 in0.0 mm 0.00 in0.0 mm
06:42 PM 42.1°F5.6°C 28.0°F-2.2°C 62% Calm Calm 1.3 mph2.1 kmh 30.33 in1027.1 mb 0.00 in0.0 mm 0.00 in0.0 mm 0.00 in0.0 mm
07:02 PM 41.2°F5.1°C 27.1°F-2.7°C 62% 0.7 mph SW1.1 kmh SW 1.3 mph2.1 kmh 30.33 in1027.1 mb 0.00 in0.0 mm 0.00 in0.0 mm 0.00 in0.0 mm
07:22 PM 40.8°F4.9°C 26.8°F-2.9°C 62% 0.7 mph S1.1 kmh S 1.3 mph2.1 kmh 30.33 in1027.1 mb 0.00 in0.0 mm 0.00 in0.0 mm 0.00 in0.0 mm
07:42 PM 40.5°F4.7°C 26.8°F-2.9°C 63% 0.7 mph SSE1.1 kmh SSE 1.3 mph2.1 kmh 30.32 in1026.8 mb 0.00 in0.0 mm 0.00 in0.0 mm 0.00 in0.0 mm
08:03 PM 40.3°F4.6°C 26.6°F-3.0°C 63% 0.7 mph S1.1 kmh S 1.8 mph2.9 kmh 30.32 in1026.8 mb 0.00 in0.0 mm 0.00 in0.0 mm 0.00 in0.0 mm
08:23 PM 39.9°F4.4°C 26.2°F-3.2°C 63% 0.7 mph SSE1.1 kmh SSE 1.8 mph2.9 kmh 30.32 in1026.8 mb 0.00 in0.0 mm 0.00 in0.0 mm 0.00 in0.0 mm
08:43 PM 39.4°F4.1°C 25.9°F-3.4°C 63% 0.7 mph SE1.1 kmh SE 1.8 mph2.9 kmh 30.32 in1026.8 mb 0.00 in0.0 mm 0.00 in0.0 mm 0.00 in0.0 mm
09:04 PM 39.2°F4.0°C 26.1°F-3.3°C 64% 1.3 mph SE2.1 kmh SE 1.8 mph2.9 kmh 30.30 in1026.1 mb 0.00 in0.0 mm 0.00 in0.0 mm 0.00 in0.0 mm
09:23 PM 39.0°F3.9°C 25.9°F-3.4°C 64% 0.7 mph S1.1 kmh S 1.8 mph2.9 kmh 30.29 in1025.7 mb 0.00 in0.0 mm 0.00 in0.0 mm 0.00 in0.0 mm
09:44 PM 38.8°F3.8°C 25.7°F-3.5°C 64% 0.7 mph SE1.1 kmh SE 2.5 mph4.0 kmh 30.29 in1025.7 mb 0.00 in0.0 mm 0.00 in0.0 mm 0.00 in0.0 mm
10:04 PM 38.7°F3.7°C 25.5°F-3.6°C 64% 1.3 mph SSE2.1 kmh SSE 2.5 mph4.0 kmh 30.29 in1025.7 mb 0.00 in0.0 mm 0.00 in0.0 mm 0.00 in0.0 mm
10:24 PM 38.8°F3.8°C 25.7°F-3.5°C 64% 1.3 mph SSE2.1 kmh SSE 2.5 mph4.0 kmh 30.28 in1025.4 mb 0.00 in0.0 mm 0.00 in0.0 mm 0.00 in0.0 mm
10:44 PM 38.8°F3.8°C 25.7°F-3.5°C 64% 0.7 mph S1.1 kmh S 1.3 mph2.1 kmh 30.28 in1025.4 mb 0.00 in0.0 mm 0.00 in0.0 mm 0.00 in0.0 mm
11:04 PM 38.5°F3.6°C 25.3°F-3.7°C 64% 0.7 mph SSE1.1 kmh SSE 3.1 mph5.0 kmh 30.27 in1025.1 mb 0.00 in0.0 mm 0.00 in0.0 mm 0.00 in0.0 mm
11:25 PM 38.3°F3.5°C 25.2°F-3.8°C 64% 0.7 mph SE1.1 kmh SE 1.8 mph2.9 kmh 30.27 in1025.1 mb 0.00 in0.0 mm 0.00 in0.0 mm 0.00 in0.0 mm
11:45 PM 38.1°F3.4°C 25.3°F-3.7°C 65% 1.3 mph SE2.1 kmh SE 4.3 mph6.9 kmh 30.26 in1024.7 mb 0.00 in0.0 mm 0.00 in0.0 mm 0.00 in0.0 mm